O'Fallon, Missouri
Current Conditions -  °F | °C
As of 8:54 PM on Friday 21 Nov 2014 (Local Time) from KSUS Reporting Station
Overcast Overcast  
Wind Chill: 37°   Ceiling: 2900
Heat Index: 40°   Visibility: 10mi
Dew Point: 33°   Wind: 5mph
Humidity: 77%   Direction: 140°SE
Pressure: 30.23"   Gusts: NA
Location:  38.78°N, 90.71°W
Report Text: KSUS 220254Z 14004KT 10SM BKN029 BKN047 OVC055 04/01 A3023 RMK AO2 RAB17E51 SLP244 P0003 60003 T00440006 58013
Loading
Personal Weather Stations






























Interactive Weather Map New forecast layout! Learn more

10-Day Weather Forecast

Advertisements
Track Severe Weather on mobile